Terminal Aerodrome Forecast
Issued by NWS Boston, MA

Home | Current Version | Previous Version | Text Only | Print | Product List | Glossary On
Versions: 1 2 3 4 5 6 7 8 9 10 11 12 13 14 15 16 17 18 19 20 21 22 23 24 25 26 27 28 29 30 31 32 33 34 35 36 37 38 39 40 41 42 43 44 45 46 47
000
FTUS41 KBOX 301729
TAFPVD
TAF
KPVD 301729Z 3018/0118 15009KT P6SM BKN060
     FM010400 16006KT P6SM BKN110
     FM011200 13007KT 5SM BR BKN060
     FM011400 14006KT 5SM SHRA BR OVC060
     FM011500 14005KT 3SM +SHRA BR OVC060
     FM011700 18010KT 3SM +SHRA BR OVC070=

USA.gov is the U.S. government's official web portal to all federal, state and local government web resources and services.